sensor_id;sensor_type;location;lat;lon;timestamp;P1;durP1;ratioP1;P2;durP2;ratioP2
44893;SDS011;30625;52.206;21.030;2023-03-23T00:02:11;34.50;;;19.58;;
44893;SDS011;30625;52.206;21.030;2023-03-23T00:04:37;36.95;;;19.77;;
44893;SDS011;30625;52.206;21.030;2023-03-23T00:07:03;36.95;;;20.98;;
44893;SDS011;30625;52.206;21.030;2023-03-23T00:12:01;34.40;;;19.60;;
44893;SDS011;30625;52.206;21.030;2023-03-23T00:14:31;34.22;;;20.50;;
44893;SDS011;30625;52.206;21.030;2023-03-23T00:17:06;38.85;;;21.17;;
44893;SDS011;30625;52.206;21.030;2023-03-23T00:19:35;38.75;;;21.45;;
44893;SDS011;30625;52.206;21.030;2023-03-23T00:22:11;36.45;;;19.83;;
44893;SDS011;30625;52.206;21.030;2023-03-23T00:24:37;38.85;;;21.98;;
44893;SDS011;30625;52.206;21.030;2023-03-23T00:27:03;40.13;;;21.63;;
44893;SDS011;30625;52.206;21.030;2023-03-23T00:29:29;39.03;;;20.95;;
44893;SDS011;30625;52.206;21.030;2023-03-23T00:31:54;36.92;;;20.20;;
44893;SDS011;30625;52.206;21.030;2023-03-23T00:34:22;35.20;;;21.20;;
44893;SDS011;30625;52.206;21.030;2023-03-23T00:36:50;40.28;;;21.30;;
44893;SDS011;30625;52.206;21.030;2023-03-23T00:39:21;35.90;;;20.17;;
44893;SDS011;30625;52.206;21.030;2023-03-23T00:41:49;40.45;;;22.00;;
44893;SDS011;30625;52.206;21.030;2023-03-23T00:44:15;35.05;;;19.08;;
44893;SDS011;30625;52.206;21.030;2023-03-23T00:46:45;38.17;;;20.15;;
44893;SDS011;30625;52.206;21.030;2023-03-23T00:49:13;37.97;;;20.33;;
44893;SDS011;30625;52.206;21.030;2023-03-23T00:51:43;39.97;;;20.55;;
44893;SDS011;30625;52.206;21.030;2023-03-23T00:56:35;37.25;;;21.05;;
44893;SDS011;30625;52.206;21.030;2023-03-23T00:59:02;39.72;;;20.85;;
44893;SDS011;30625;52.206;21.030;2023-03-23T01:03:54;38.20;;;20.88;;
44893;SDS011;30625;52.206;21.030;2023-03-23T01:06:25;38.20;;;20.75;;
44893;SDS011;30625;52.206;21.030;2023-03-23T01:08:56;38.45;;;21.35;;
44893;SDS011;30625;52.206;21.030;2023-03-23T01:11:22;37.38;;;20.73;;
44893;SDS011;30625;52.206;21.030;2023-03-23T01:13:49;35.20;;;19.77;;
44893;SDS011;30625;52.206;21.030;2023-03-23T01:16:14;40.17;;;21.58;;
44893;SDS011;30625;52.206;21.030;2023-03-23T01:18:40;35.78;;;21.23;;
44893;SDS011;30625;52.206;21.030;2023-03-23T01:21:11;38.42;;;21.67;;
44893;SDS011;30625;52.206;21.030;2023-03-23T01:26:09;38.42;;;22.45;;
44893;SDS011;30625;52.206;21.030;2023-03-23T01:28:36;42.30;;;21.65;;
44893;SDS011;30625;52.206;21.030;2023-03-23T01:31:04;37.00;;;21.83;;
44893;SDS011;30625;52.206;21.030;2023-03-23T01:33:32;40.72;;;22.40;;
44893;SDS011;30625;52.206;21.030;2023-03-23T01:36:02;42.00;;;22.40;;
44893;SDS011;30625;52.206;21.030;2023-03-23T01:38:33;37.65;;;21.20;;
44893;SDS011;30625;52.206;21.030;2023-03-23T01:40:59;44.33;;;21.98;;
44893;SDS011;30625;52.206;21.030;2023-03-23T01:43:26;38.72;;;21.27;;
44893;SDS011;30625;52.206;21.030;2023-03-23T01:45:54;36.35;;;21.35;;
44893;SDS011;30625;52.206;21.030;2023-03-23T01:51:06;36.83;;;21.17;;
44893;SDS011;30625;52.206;21.030;2023-03-23T01:54:02;36.45;;;20.52;;
44893;SDS011;30625;52.206;21.030;2023-03-23T01:56:33;42.95;;;20.90;;
44893;SDS011;30625;52.206;21.030;2023-03-23T01:59:06;38.80;;;22.55;;
44893;SDS011;30625;52.206;21.030;2023-03-23T02:01:33;36.50;;;20.70;;
44893;SDS011;30625;52.206;21.030;2023-03-23T02:04:03;40.53;;;21.85;;
44893;SDS011;30625;52.206;21.030;2023-03-23T02:06:29;37.85;;;21.65;;
44893;SDS011;30625;52.206;21.030;2023-03-23T02:08:55;38.35;;;20.20;;
44893;SDS011;30625;52.206;21.030;2023-03-23T02:13:48;40.75;;;21.38;;
44893;SDS011;30625;52.206;21.030;2023-03-23T02:16:34;37.55;;;20.65;;
44893;SDS011;30625;52.206;21.030;2023-03-23T02:39:08;39.58;;;19.92;;
44893;SDS011;30625;52.206;21.030;2023-03-23T02:41:42;37.97;;;20.33;;
44893;SDS011;30625;52.206;21.030;2023-03-23T02:44:13;35.67;;;20.42;;
44893;SDS011;30625;52.206;21.030;2023-03-23T02:46:40;35.50;;;20.65;;
44893;SDS011;30625;52.206;21.030;2023-03-23T02:49:07;36.47;;;20.00;;
44893;SDS011;30625;52.206;21.030;2023-03-23T02:51:36;36.25;;;20.50;;
44893;SDS011;30625;52.206;21.030;2023-03-23T02:54:03;40.13;;;20.40;;
44893;SDS011;30625;52.206;21.030;2023-03-23T02:56:29;36.65;;;19.92;;
44893;SDS011;30625;52.206;21.030;2023-03-23T02:58:57;36.22;;;19.75;;
44893;SDS011;30625;52.206;21.030;2023-03-23T03:03:59;33.03;;;18.27;;
44893;SDS011;30625;52.206;21.030;2023-03-23T03:06:34;34.53;;;18.70;;
44893;SDS011;30625;52.206;21.030;2023-03-23T03:11:56;29.83;;;17.95;;
44893;SDS011;30625;52.206;21.030;2023-03-23T03:14:28;32.97;;;18.05;;
44893;SDS011;30625;52.206;21.030;2023-03-23T03:19:39;28.90;;;17.50;;
44893;SDS011;30625;52.206;21.030;2023-03-23T03:22:08;30.45;;;17.35;;
44893;SDS011;30625;52.206;21.030;2023-03-23T03:24:34;33.17;;;17.98;;
44893;SDS011;30625;52.206;21.030;2023-03-23T03:27:05;33.65;;;18.58;;
44893;SDS011;30625;52.206;21.030;2023-03-23T03:29:41;30.88;;;17.42;;
44893;SDS011;30625;52.206;21.030;2023-03-23T03:32:11;29.60;;;16.58;;
44893;SDS011;30625;52.206;21.030;2023-03-23T03:34:39;30.23;;;17.58;;
44893;SDS011;30625;52.206;21.030;2023-03-23T03:37:05;33.08;;;17.63;;
44893;SDS011;30625;52.206;21.030;2023-03-23T03:39:34;30.70;;;17.15;;
44893;SDS011;30625;52.206;21.030;2023-03-23T03:42:01;33.08;;;16.50;;
44893;SDS011;30625;52.206;21.030;2023-03-23T03:46:53;27.88;;;16.73;;
44893;SDS011;30625;52.206;21.030;2023-03-23T03:49:19;28.75;;;16.27;;
44893;SDS011;30625;52.206;21.030;2023-03-23T03:51:45;30.25;;;16.73;;
44893;SDS011;30625;52.206;21.030;2023-03-23T03:54:10;27.42;;;16.15;;
44893;SDS011;30625;52.206;21.030;2023-03-23T03:56:37;26.02;;;15.88;;
44893;SDS011;30625;52.206;21.030;2023-03-23T03:59:05;32.90;;;17.45;;
44893;SDS011;30625;52.206;21.030;2023-03-23T04:01:33;31.15;;;16.83;;
44893;SDS011;30625;52.206;21.030;2023-03-23T04:03:59;29.83;;;16.80;;
44893;SDS011;30625;52.206;21.030;2023-03-23T04:06:25;28.70;;;16.33;;
44893;SDS011;30625;52.206;21.030;2023-03-23T04:08:53;31.25;;;16.95;;
44893;SDS011;30625;52.206;21.030;2023-03-23T04:11:30;27.55;;;15.63;;
44893;SDS011;30625;52.206;21.030;2023-03-23T04:16:22;28.13;;;15.27;;
44893;SDS011;30625;52.206;21.030;2023-03-23T04:18:48;26.40;;;15.10;;
44893;SDS011;30625;52.206;21.030;2023-03-23T04:23:41;28.45;;;15.23;;
44893;SDS011;30625;52.206;21.030;2023-03-23T04:26:07;31.95;;;17.05;;
44893;SDS011;30625;52.206;21.030;2023-03-23T04:28:32;30.33;;;16.83;;
44893;SDS011;30625;52.206;21.030;2023-03-23T04:30:59;29.25;;;16.88;;
44893;SDS011;30625;52.206;21.030;2023-03-23T04:33:26;29.88;;;16.60;;
44893;SDS011;30625;52.206;21.030;2023-03-23T04:35:54;29.60;;;16.95;;
44893;SDS011;30625;52.206;21.030;2023-03-23T04:38:21;34.25;;;17.38;;
44893;SDS011;30625;52.206;21.030;2023-03-23T04:40:48;32.22;;;16.23;;
44893;SDS011;30625;52.206;21.030;2023-03-23T04:43:18;31.08;;;16.95;;
44893;SDS011;30625;52.206;21.030;2023-03-23T04:45:46;29.98;;;17.45;;
44893;SDS011;30625;52.206;21.030;2023-03-23T04:50:38;30.52;;;16.38;;
44893;SDS011;30625;52.206;21.030;2023-03-23T04:53:04;28.27;;;17.08;;
44893;SDS011;30625;52.206;21.030;2023-03-23T04:55:31;28.90;;;15.50;;
44893;SDS011;30625;52.206;21.030;2023-03-23T04:58:01;28.70;;;15.35;;
44893;SDS011;30625;52.206;21.030;2023-03-23T05:00:27;29.67;;;17.00;;
44893;SDS011;30625;52.206;21.030;2023-03-23T05:02:54;28.27;;;16.35;;
44893;SDS011;30625;52.206;21.030;2023-03-23T05:05:20;26.20;;;15.48;;
44893;SDS011;30625;52.206;21.030;2023-03-23T05:07:47;31.63;;;16.85;;
44893;SDS011;30625;52.206;21.030;2023-03-23T05:10:14;30.15;;;15.30;;
44893;SDS011;30625;52.206;21.030;2023-03-23T05:12:40;30.23;;;16.88;;
44893;SDS011;30625;52.206;21.030;2023-03-23T05:15:07;27.52;;;15.40;;
44893;SDS011;30625;52.206;21.030;2023-03-23T05:17:34;30.25;;;15.82;;
44893;SDS011;30625;52.206;21.030;2023-03-23T05:22:29;26.08;;;14.93;;
44893;SDS011;30625;52.206;21.030;2023-03-23T05:24:57;29.60;;;15.63;;
44893;SDS011;30625;52.206;21.030;2023-03-23T05:27:27;29.60;;;16.25;;
44893;SDS011;30625;52.206;21.030;2023-03-23T05:29:55;25.38;;;15.40;;
44893;SDS011;30625;52.206;21.030;2023-03-23T05:32:23;26.35;;;15.35;;
44893;SDS011;30625;52.206;21.030;2023-03-23T05:35:03;25.73;;;15.02;;
44893;SDS011;30625;52.206;21.030;2023-03-23T05:37:29;24.98;;;14.73;;
44893;SDS011;30625;52.206;21.030;2023-03-23T05:39:57;29.50;;;17.33;;
44893;SDS011;30625;52.206;21.030;2023-03-23T05:42:26;25.75;;;14.75;;
44893;SDS011;30625;52.206;21.030;2023-03-23T05:44:52;26.10;;;16.17;;
44893;SDS011;30625;52.206;21.030;2023-03-23T05:47:18;27.63;;;15.07;;
44893;SDS011;30625;52.206;21.030;2023-03-23T05:49:44;26.70;;;15.00;;
44893;SDS011;30625;52.206;21.030;2023-03-23T05:52:09;29.15;;;15.20;;
44893;SDS011;30625;52.206;21.030;2023-03-23T05:54:35;25.63;;;14.77;;
44893;SDS011;30625;52.206;21.030;2023-03-23T05:59:27;24.67;;;14.85;;
44893;SDS011;30625;52.206;21.030;2023-03-23T06:01:53;26.33;;;13.50;;
44893;SDS011;30625;52.206;21.030;2023-03-23T06:04:19;27.05;;;14.60;;
44893;SDS011;30625;52.206;21.030;2023-03-23T06:06:45;26.35;;;14.93;;
44893;SDS011;30625;52.206;21.030;2023-03-23T06:09:11;25.48;;;14.50;;
44893;SDS011;30625;52.206;21.030;2023-03-23T06:11:37;23.10;;;13.82;;
44893;SDS011;30625;52.206;21.030;2023-03-23T06:14:03;23.83;;;13.65;;
44893;SDS011;30625;52.206;21.030;2023-03-23T06:16:28;25.42;;;14.10;;
44893;SDS011;30625;52.206;21.030;2023-03-23T06:18:54;30.02;;;14.52;;
44893;SDS011;30625;52.206;21.030;2023-03-23T06:21:22;23.35;;;13.43;;
44893;SDS011;30625;52.206;21.030;2023-03-23T06:23:48;22.88;;;13.82;;
44893;SDS011;30625;52.206;21.030;2023-03-23T06:28:42;23.27;;;13.65;;
44893;SDS011;30625;52.206;21.030;2023-03-23T06:31:08;26.75;;;13.63;;
44893;SDS011;30625;52.206;21.030;2023-03-23T06:36:01;24.55;;;13.38;;
44893;SDS011;30625;52.206;21.030;2023-03-23T06:38:27;24.10;;;14.55;;
44893;SDS011;30625;52.206;21.030;2023-03-23T06:40:53;27.35;;;14.00;;
44893;SDS011;30625;52.206;21.030;2023-03-23T06:45:45;21.25;;;11.77;;
44893;SDS011;30625;52.206;21.030;2023-03-23T06:48:10;24.88;;;13.57;;
44893;SDS011;30625;52.206;21.030;2023-03-23T06:50:37;20.00;;;12.32;;
44893;SDS011;30625;52.206;21.030;2023-03-23T06:53:03;27.92;;;12.43;;
44893;SDS011;30625;52.206;21.030;2023-03-23T06:55:28;26.02;;;12.45;;
44893;SDS011;30625;52.206;21.030;2023-03-23T06:57:57;25.80;;;12.57;;
44893;SDS011;30625;52.206;21.030;2023-03-23T07:00:24;21.20;;;12.32;;
44893;SDS011;30625;52.206;21.030;2023-03-23T07:02:50;22.17;;;12.13;;
44893;SDS011;30625;52.206;21.030;2023-03-23T07:05:16;21.38;;;12.38;;
44893;SDS011;30625;52.206;21.030;2023-03-23T07:07:41;23.67;;;12.43;;
44893;SDS011;30625;52.206;21.030;2023-03-23T07:10:08;22.70;;;12.27;;
44893;SDS011;30625;52.206;21.030;2023-03-23T07:12:35;19.55;;;11.48;;
44893;SDS011;30625;52.206;21.030;2023-03-23T07:15:04;22.02;;;13.02;;
44893;SDS011;30625;52.206;21.030;2023-03-23T07:17:32;19.67;;;11.68;;
44893;SDS011;30625;52.206;21.030;2023-03-23T07:19:58;19.27;;;11.65;;
44893;SDS011;30625;52.206;21.030;2023-03-23T07:22:24;21.13;;;11.48;;
44893;SDS011;30625;52.206;21.030;2023-03-23T07:24:50;19.27;;;10.27;;
44893;SDS011;30625;52.206;21.030;2023-03-23T07:27:15;17.95;;;11.38;;
44893;SDS011;30625;52.206;21.030;2023-03-23T07:29:41;22.45;;;10.75;;
44893;SDS011;30625;52.206;21.030;2023-03-23T07:32:08;21.40;;;10.38;;
44893;SDS011;30625;52.206;21.030;2023-03-23T07:34:35;19.08;;;9.90;;
44893;SDS011;30625;52.206;21.030;2023-03-23T07:37:02;19.17;;;10.43;;
44893;SDS011;30625;52.206;21.030;2023-03-23T07:39:27;18.00;;;9.82;;
44893;SDS011;30625;52.206;21.030;2023-03-23T07:41:54;16.38;;;9.43;;
44893;SDS011;30625;52.206;21.030;2023-03-23T07:44:19;16.05;;;9.32;;
44893;SDS011;30625;52.206;21.030;2023-03-23T07:46:45;22.00;;;9.60;;
44893;SDS011;30625;52.206;21.030;2023-03-23T07:49:11;17.52;;;10.20;;
44893;SDS011;30625;52.206;21.030;2023-03-23T07:51:37;14.40;;;8.95;;
44893;SDS011;30625;52.206;21.030;2023-03-23T07:54:03;14.80;;;9.02;;
44893;SDS011;30625;52.206;21.030;2023-03-23T07:56:30;23.95;;;12.80;;
44893;SDS011;30625;52.206;21.030;2023-03-23T07:58:56;20.13;;;9.32;;
44893;SDS011;30625;52.206;21.030;2023-03-23T08:01:22;14.60;;;9.10;;
44893;SDS011;30625;52.206;21.030;2023-03-23T08:03:49;17.33;;;9.05;;
44893;SDS011;30625;52.206;21.030;2023-03-23T08:06:16;16.10;;;8.70;;
44893;SDS011;30625;52.206;21.030;2023-03-23T08:08:42;21.48;;;8.65;;
44893;SDS011;30625;52.206;21.030;2023-03-23T08:11:07;16.98;;;8.52;;
44893;SDS011;30625;52.206;21.030;2023-03-23T08:13:33;13.43;;;8.15;;
44893;SDS011;30625;52.206;21.030;2023-03-23T08:16:00;15.70;;;7.93;;
44893;SDS011;30625;52.206;21.030;2023-03-23T08:18:28;15.95;;;7.53;;
44893;SDS011;30625;52.206;21.030;2023-03-23T08:20:55;14.15;;;8.32;;
44893;SDS011;30625;52.206;21.030;2023-03-23T08:23:21;13.27;;;8.05;;
44893;SDS011;30625;52.206;21.030;2023-03-23T08:25:47;23.63;;;9.13;;
44893;SDS011;30625;52.206;21.030;2023-03-23T08:28:13;17.25;;;7.95;;
44893;SDS011;30625;52.206;21.030;2023-03-23T08:30:39;15.55;;;8.13;;
44893;SDS011;30625;52.206;21.030;2023-03-23T08:33:06;15.82;;;8.55;;
44893;SDS011;30625;52.206;21.030;2023-03-23T08:35:33;14.23;;;7.68;;
44893;SDS011;30625;52.206;21.030;2023-03-23T08:37:59;14.30;;;8.05;;
44893;SDS011;30625;52.206;21.030;2023-03-23T08:40:25;14.70;;;7.07;;
44893;SDS011;30625;52.206;21.030;2023-03-23T08:42:51;14.27;;;6.93;;
44893;SDS011;30625;52.206;21.030;2023-03-23T08:45:19;12.00;;;6.68;;
44893;SDS011;30625;52.206;21.030;2023-03-23T08:47:47;11.40;;;6.05;;
44893;SDS011;30625;52.206;21.030;2023-03-23T08:50:17;11.85;;;6.43;;
44893;SDS011;30625;52.206;21.030;2023-03-23T08:52:45;14.40;;;6.40;;
44893;SDS011;30625;52.206;21.030;2023-03-23T08:55:12;12.73;;;5.97;;
44893;SDS011;30625;52.206;21.030;2023-03-23T08:57:40;10.45;;;5.95;;
44893;SDS011;30625;52.206;21.030;2023-03-23T09:00:08;13.45;;;6.00;;
44893;SDS011;30625;52.206;21.030;2023-03-23T09:02:41;12.48;;;6.70;;
44893;SDS011;30625;52.206;21.030;2023-03-23T09:07:35;10.57;;;5.30;;
44893;SDS011;30625;52.206;21.030;2023-03-23T09:10:01;10.52;;;5.22;;
44893;SDS011;30625;52.206;21.030;2023-03-23T09:14:52;9.50;;;5.28;;
44893;SDS011;30625;52.206;21.030;2023-03-23T09:17:18;12.40;;;5.20;;
44893;SDS011;30625;52.206;21.030;2023-03-23T09:19:44;12.02;;;5.80;;
44893;SDS011;30625;52.206;21.030;2023-03-23T09:22:09;10.85;;;5.47;;
44893;SDS011;30625;52.206;21.030;2023-03-23T09:24:35;15.43;;;5.50;;
44893;SDS011;30625;52.206;21.030;2023-03-23T09:27:02;14.77;;;5.72;;
44893;SDS011;30625;52.206;21.030;2023-03-23T09:31:54;10.70;;;5.55;;
44893;SDS011;30625;52.206;21.030;2023-03-23T09:34:21;8.90;;;5.40;;
44893;SDS011;30625;52.206;21.030;2023-03-23T09:36:47;14.20;;;5.50;;
44893;SDS011;30625;52.206;21.030;2023-03-23T09:39:13;13.10;;;5.90;;
44893;SDS011;30625;52.206;21.030;2023-03-23T09:44:54;11.45;;;5.80;;
44893;SDS011;30625;52.206;21.030;2023-03-23T09:47:37;11.52;;;5.55;;
44893;SDS011;30625;52.206;21.030;2023-03-23T09:50:23;11.52;;;5.53;;
44893;SDS011;30625;52.206;21.030;2023-03-23T09:52:58;13.48;;;5.97;;
44893;SDS011;30625;52.206;21.030;2023-03-23T09:55:33;11.60;;;6.18;;
44893;SDS011;30625;52.206;21.030;2023-03-23T09:58:11;13.50;;;6.28;;
44893;SDS011;30625;52.206;21.030;2023-03-23T10:03:30;9.52;;;4.65;;
44893;SDS011;30625;52.206;21.030;2023-03-23T10:06:00;9.10;;;4.93;;
44893;SDS011;30625;52.206;21.030;2023-03-23T10:08:27;9.63;;;5.28;;
44893;SDS011;30625;52.206;21.030;2023-03-23T10:11:03;9.10;;;5.38;;
44893;SDS011;30625;52.206;21.030;2023-03-23T10:21:23;7.78;;;4.60;;
44893;SDS011;30625;52.206;21.030;2023-03-23T10:31:54;10.10;;;4.15;;
44893;SDS011;30625;52.206;21.030;2023-03-23T10:34:28;18.52;;;4.30;;
44893;SDS011;30625;52.206;21.030;2023-03-23T10:37:21;14.65;;;4.50;;
44893;SDS011;30625;52.206;21.030;2023-03-23T10:39:54;9.15;;;4.03;;
44893;SDS011;30625;52.206;21.030;2023-03-23T10:42:28;8.48;;;4.25;;
44893;SDS011;30625;52.206;21.030;2023-03-23T10:47:49;7.70;;;4.10;;
44893;SDS011;30625;52.206;21.030;2023-03-23T10:50:24;9.05;;;3.78;;
44893;SDS011;30625;52.206;21.030;2023-03-23T10:52:53;8.60;;;3.92;;
44893;SDS011;30625;52.206;21.030;2023-03-23T10:55:23;8.48;;;4.10;;
44893;SDS011;30625;52.206;21.030;2023-03-23T10:58:00;8.13;;;3.50;;
44893;SDS011;30625;52.206;21.030;2023-03-23T11:00:28;5.15;;;2.47;;
44893;SDS011;30625;52.206;21.030;2023-03-23T11:05:32;6.45;;;2.60;;
44893;SDS011;30625;52.206;21.030;2023-03-23T11:08:03;5.38;;;2.88;;
44893;SDS011;30625;52.206;21.030;2023-03-23T11:31:12;5.97;;;2.38;;
44893;SDS011;30625;52.206;21.030;2023-03-23T11:33:40;7.28;;;3.00;;
44893;SDS011;30625;52.206;21.030;2023-03-23T11:36:17;6.32;;;2.80;;
44893;SDS011;30625;52.206;21.030;2023-03-23T11:38:43;6.65;;;2.88;;
44893;SDS011;30625;52.206;21.030;2023-03-23T11:41:16;7.38;;;2.63;;
44893;SDS011;30625;52.206;21.030;2023-03-23T11:43:45;5.13;;;2.35;;
44893;SDS011;30625;52.206;21.030;2023-03-23T11:48:57;4.60;;;1.85;;
44893;SDS011;30625;52.206;21.030;2023-03-23T11:56:45;7.03;;;1.80;;
44893;SDS011;30625;52.206;21.030;2023-03-23T11:59:16;5.65;;;1.88;;
44893;SDS011;30625;52.206;21.030;2023-03-23T12:01:53;7.97;;;1.95;;
44893;SDS011;30625;52.206;21.030;2023-03-23T12:07:46;5.60;;;2.20;;
44893;SDS011;30625;52.206;21.030;2023-03-23T12:22:04;7.85;;;1.88;;
44893;SDS011;30625;52.206;21.030;2023-03-23T12:24:54;4.75;;;1.65;;
44893;SDS011;30625;52.206;21.030;2023-03-23T12:27:48;8.15;;;1.80;;
44893;SDS011;30625;52.206;21.030;2023-03-23T12:40:59;5.88;;;2.00;;
44893;SDS011;30625;52.206;21.030;2023-03-23T12:43:42;5.60;;;1.85;;
44893;SDS011;30625;52.206;21.030;2023-03-23T12:49:07;7.30;;;2.80;;
44893;SDS011;30625;52.206;21.030;2023-03-23T12:54:38;5.43;;;2.58;;
44893;SDS011;30625;52.206;21.030;2023-03-23T13:07:24;6.38;;;2.60;;
44893;SDS011;30625;52.206;21.030;2023-03-23T13:12:41;8.95;;;3.22;;
44893;SDS011;30625;52.206;21.030;2023-03-23T13:20:55;8.43;;;3.10;;
44893;SDS011;30625;52.206;21.030;2023-03-23T13:23:44;7.00;;;3.03;;
44893;SDS011;30625;52.206;21.030;2023-03-23T13:26:17;6.25;;;2.55;;
44893;SDS011;30625;52.206;21.030;2023-03-23T13:33:52;7.72;;;3.22;;
44893;SDS011;30625;52.206;21.030;2023-03-23T13:36:29;7.20;;;2.85;;
44893;SDS011;30625;52.206;21.030;2023-03-23T13:38:58;7.55;;;3.05;;
44893;SDS011;30625;52.206;21.030;2023-03-23T13:41:26;8.00;;;3.17;;
44893;SDS011;30625;52.206;21.030;2023-03-23T13:44:03;7.80;;;2.42;;
44893;SDS011;30625;52.206;21.030;2023-03-23T13:46:31;5.32;;;2.42;;
44893;SDS011;30625;52.206;21.030;2023-03-23T13:56:55;7.32;;;2.10;;
44893;SDS011;30625;52.206;21.030;2023-03-23T14:12:21;7.85;;;2.17;;
44893;SDS011;30625;52.206;21.030;2023-03-23T14:15:00;7.25;;;2.33;;
44893;SDS011;30625;52.206;21.030;2023-03-23T14:22:37;8.50;;;3.05;;
44893;SDS011;30625;52.206;21.030;2023-03-23T14:25:17;7.00;;;2.63;;
44893;SDS011;30625;52.206;21.030;2023-03-23T14:27:45;9.50;;;2.70;;
44893;SDS011;30625;52.206;21.030;2023-03-23T14:32:45;8.60;;;2.92;;
44893;SDS011;30625;52.206;21.030;2023-03-23T14:35:21;7.13;;;2.95;;
44893;SDS011;30625;52.206;21.030;2023-03-23T14:50:51;6.78;;;3.35;;
44893;SDS011;30625;52.206;21.030;2023-03-23T15:01:22;8.70;;;3.50;;
44893;SDS011;30625;52.206;21.030;2023-03-23T15:03:53;8.25;;;3.10;;
44893;SDS011;30625;52.206;21.030;2023-03-23T15:06:26;5.85;;;3.00;;
44893;SDS011;30625;52.206;21.030;2023-03-23T15:08:56;11.25;;;3.70;;
44893;SDS011;30625;52.206;21.030;2023-03-23T15:13:56;11.63;;;3.88;;
44893;SDS011;30625;52.206;21.030;2023-03-23T15:16:27;6.45;;;3.30;;
44893;SDS011;30625;52.206;21.030;2023-03-23T15:18:55;6.65;;;3.28;;
44893;SDS011;30625;52.206;21.030;2023-03-23T15:29:01;10.23;;;3.30;;
44893;SDS011;30625;52.206;21.030;2023-03-23T15:31:38;9.48;;;3.80;;
44893;SDS011;30625;52.206;21.030;2023-03-23T15:34:11;9.63;;;4.05;;
44893;SDS011;30625;52.206;21.030;2023-03-23T15:36:41;9.07;;;3.92;;
44893;SDS011;30625;52.206;21.030;2023-03-23T15:39:09;7.07;;;3.67;;
44893;SDS011;30625;52.206;21.030;2023-03-23T15:41:45;11.50;;;3.92;;
44893;SDS011;30625;52.206;21.030;2023-03-23T15:44:19;6.78;;;3.80;;
44893;SDS011;30625;52.206;21.030;2023-03-23T15:46:49;7.22;;;3.20;;
44893;SDS011;30625;52.206;21.030;2023-03-23T15:49:16;9.55;;;3.92;;
44893;SDS011;30625;52.206;21.030;2023-03-23T15:51:41;7.05;;;3.42;;
44893;SDS011;30625;52.206;21.030;2023-03-23T15:54:09;11.23;;;4.82;;
44893;SDS011;30625;52.206;21.030;2023-03-23T15:56:38;10.27;;;3.85;;
44893;SDS011;30625;52.206;21.030;2023-03-23T15:59:07;9.25;;;3.60;;
44893;SDS011;30625;52.206;21.030;2023-03-23T16:01:33;10.18;;;4.00;;
44893;SDS011;30625;52.206;21.030;2023-03-23T16:06:41;8.02;;;4.10;;
44893;SDS011;30625;52.206;21.030;2023-03-23T16:14:17;8.90;;;3.72;;
44893;SDS011;30625;52.206;21.030;2023-03-23T16:19:22;9.23;;;3.53;;
44893;SDS011;30625;52.206;21.030;2023-03-23T16:21:48;9.00;;;3.80;;
44893;SDS011;30625;52.206;21.030;2023-03-23T16:24:14;8.43;;;3.47;;
44893;SDS011;30625;52.206;21.030;2023-03-23T16:26:43;11.20;;;4.32;;
44893;SDS011;30625;52.206;21.030;2023-03-23T16:29:12;6.75;;;3.60;;
44893;SDS011;30625;52.206;21.030;2023-03-23T16:31:40;9.10;;;4.35;;
44893;SDS011;30625;52.206;21.030;2023-03-23T16:34:09;10.48;;;3.92;;
44893;SDS011;30625;52.206;21.030;2023-03-23T16:39:13;7.53;;;3.28;;
44893;SDS011;30625;52.206;21.030;2023-03-23T16:41:43;7.60;;;3.75;;
44893;SDS011;30625;52.206;21.030;2023-03-23T16:44:10;6.68;;;2.85;;
44893;SDS011;30625;52.206;21.030;2023-03-23T16:46:36;5.40;;;2.50;;
44893;SDS011;30625;52.206;21.030;2023-03-23T16:49:02;6.38;;;2.65;;
44893;SDS011;30625;52.206;21.030;2023-03-23T16:51:28;8.55;;;2.50;;
44893;SDS011;30625;52.206;21.030;2023-03-23T16:56:20;9.93;;;2.97;;
44893;SDS011;30625;52.206;21.030;2023-03-23T16:58:45;10.15;;;3.65;;
44893;SDS011;30625;52.206;21.030;2023-03-23T17:01:13;9.70;;;3.88;;
44893;SDS011;30625;52.206;21.030;2023-03-23T17:03:40;6.05;;;2.80;;
44893;SDS011;30625;52.206;21.030;2023-03-23T17:06:06;5.88;;;2.90;;
44893;SDS011;30625;52.206;21.030;2023-03-23T17:10:58;6.90;;;2.88;;
44893;SDS011;30625;52.206;21.030;2023-03-23T17:13:24;7.72;;;3.20;;
44893;SDS011;30625;52.206;21.030;2023-03-23T17:15:52;6.65;;;3.30;;
44893;SDS011;30625;52.206;21.030;2023-03-23T17:18:20;8.38;;;3.22;;
44893;SDS011;30625;52.206;21.030;2023-03-23T17:20:47;6.85;;;3.00;;
44893;SDS011;30625;52.206;21.030;2023-03-23T17:23:13;6.65;;;3.17;;
44893;SDS011;30625;52.206;21.030;2023-03-23T17:28:13;7.30;;;3.25;;
44893;SDS011;30625;52.206;21.030;2023-03-23T17:30:40;7.45;;;3.70;;
44893;SDS011;30625;52.206;21.030;2023-03-23T17:33:07;9.15;;;3.55;;
44893;SDS011;30625;52.206;21.030;2023-03-23T17:35:34;9.23;;;3.55;;
44893;SDS011;30625;52.206;21.030;2023-03-23T17:38:07;8.73;;;3.50;;
44893;SDS011;30625;52.206;21.030;2023-03-23T17:40:32;10.35;;;3.85;;
44893;SDS011;30625;52.206;21.030;2023-03-23T17:43:01;6.97;;;3.65;;
44893;SDS011;30625;52.206;21.030;2023-03-23T17:45:28;10.75;;;4.15;;
44893;SDS011;30625;52.206;21.030;2023-03-23T17:47:54;11.93;;;4.15;;
44893;SDS011;30625;52.206;21.030;2023-03-23T17:50:20;10.30;;;3.80;;
44893;SDS011;30625;52.206;21.030;2023-03-23T17:52:46;12.73;;;4.25;;
44893;SDS011;30625;52.206;21.030;2023-03-23T17:55:12;9.75;;;4.30;;
44893;SDS011;30625;52.206;21.030;2023-03-23T17:57:38;6.60;;;3.78;;
44893;SDS011;30625;52.206;21.030;2023-03-23T18:00:04;8.48;;;3.90;;
44893;SDS011;30625;52.206;21.030;2023-03-23T18:02:37;7.68;;;3.80;;
44893;SDS011;30625;52.206;21.030;2023-03-23T18:05:03;9.43;;;4.88;;
44893;SDS011;30625;52.206;21.030;2023-03-23T18:07:30;10.30;;;4.45;;
44893;SDS011;30625;52.206;21.030;2023-03-23T18:09:57;11.43;;;4.25;;
44893;SDS011;30625;52.206;21.030;2023-03-23T18:12:26;6.93;;;3.55;;
44893;SDS011;30625;52.206;21.030;2023-03-23T18:14:55;13.55;;;4.72;;
44893;SDS011;30625;52.206;21.030;2023-03-23T18:17:21;19.35;;;4.68;;
44893;SDS011;30625;52.206;21.030;2023-03-23T18:19:48;11.63;;;4.95;;
44893;SDS011;30625;52.206;21.030;2023-03-23T18:22:14;11.55;;;4.93;;
44893;SDS011;30625;52.206;21.030;2023-03-23T18:24:39;9.40;;;4.70;;
44893;SDS011;30625;52.206;21.030;2023-03-23T18:27:05;9.57;;;4.35;;
44893;SDS011;30625;52.206;21.030;2023-03-23T18:29:31;9.38;;;4.68;;
44893;SDS011;30625;52.206;21.030;2023-03-23T18:31:56;12.55;;;5.90;;
44893;SDS011;30625;52.206;21.030;2023-03-23T18:34:22;11.85;;;5.68;;
44893;SDS011;30625;52.206;21.030;2023-03-23T18:36:48;9.57;;;5.35;;
44893;SDS011;30625;52.206;21.030;2023-03-23T18:39:14;11.10;;;5.03;;
44893;SDS011;30625;52.206;21.030;2023-03-23T18:44:06;12.55;;;5.53;;
44893;SDS011;30625;52.206;21.030;2023-03-23T18:46:32;10.55;;;5.00;;
44893;SDS011;30625;52.206;21.030;2023-03-23T18:48:57;11.00;;;5.30;;
44893;SDS011;30625;52.206;21.030;2023-03-23T18:51:23;11.35;;;5.13;;
44893;SDS011;30625;52.206;21.030;2023-03-23T18:53:50;12.80;;;4.60;;